ADDS METAR Data INFO
IDs: Format: Raw Decoded Include TAF

Data at: 2309 UTC 16 Jan 2018

KMVY 162253Z AUTO 00000KT 10SM CLR A3048 RMK AO2 SLPNO $
KMVY 162153Z 00000KT 10SM CLR A3047 RMK AO2 SLPNO $
KMVY 162053Z 17003KT 10SM CLR 02/M03 A3047 RMK AO2 SLPNO T00221028 53000 $
KMVY 161953Z 16005KT 10SM FEW025 03/M03 A3047 RMK AO2 SLPNO T00281033 $
KMVY 161946Z 18005KT 10SM SCT025 03/M03 A3047 RMK AO2 T00281033 $
KMVY 161910Z 17006KT 10SM BKN027 03/M03 A3047 RMK AO2 T00281033 $
KMVY 161853Z 11005KT 10SM FEW026 03/M02 A3046 RMK AO2 SLPNO T00281022 $
KMVY 161753Z VRB05KT 10SM FEW029 03/M02 A3046 RMK AO2 SLPNO T00281022 58021 $
KMVY 161653Z VRB04KT 10SM CLR 02/M03 A3048 RMK AO2 SLPNO T00221028 $
KMVY 161553Z 12003KT 10SM BKN100 00/M02 A3051 RMK AO2 SLPNO T00001022 $
KMVY 161453Z 05005KT 10SM CLR M01/M02 A3053 RMK AO2 SLPNO T10111022 51007 $
KMVY 161353Z 04005KT 10SM CLR M03/M03 A3052 RMK AO2 SLPNO T10281028 $
KMVY 161253Z 34006KT 10SM CLR M04/M05 A3052 RMK AO2 SLPNO T10391044 $
KMVY 161153Z 36004KT 10SM CLR A3050 RMK AO2 SLPNO 51010 $
KMVY 161053Z AUTO 35006KT 10SM BKN032 A3050 RMK AO2 SLPNO $
KMVY 160953Z AUTO 34011KT 10SM OVC033 A3049 RMK AO2 SLPNO $
KMVY 160853Z AUTO 34010KT 10SM OVC034 A3047 RMK AO2 SLPNO 52003 $
KMVY 160753Z AUTO 34011KT 10SM OVC036 A3046 RMK AO2 SLPNO $
KMVY 160721Z AUTO 34010KT 10SM SCT009 SCT019 OVC039 A3047 RMK AO2 $
KMVY 160653Z AUTO 33012KT 8SM SCT009 BKN019 OVC039 A3047 RMK AO2 SLPNO $
KMVY 160616Z AUTO 34010KT 4SM HZ SCT007 OVC016 A3045 RMK AO2 $
KMVY 160553Z AUTO 33010KT 4SM HZ BKN007 OVC016 A3046 RMK AO2 SLPNO I6002 56017 $
KMVY 160453Z AUTO 34009KT 6SM HZ OVC006 A3047 RMK AO2 SLPNO $
KMVY 160353Z AUTO 36012KT 10SM OVC006 A3047 RMK AO2 SLPNO $
KMVY 160253Z AUTO 34013KT 10SM OVC006 A3051 RMK AO2 SLPNO I1001 I3002 53014 $
KMVY 160153Z AUTO 34017G23KT 7SM OVC005 A3047 RMK AO2 SLPNO I1001 $
KMVY 160100Z AUTO 33016KT 3SM BR OVC004 A3048 RMK AO2 CIG 003V008 $
KMVY 160053Z AUTO 33013KT 4SM HZ OVC006 A3047 RMK AO2 CIG 003V011 SLPNO I1000 $
KMVY 152353Z AUTO 36012G21KT 6SM HZ OVC007 A3047 RMK AO2 CIG 006V010 SLPNO 60000 I1001 I6001 56004 $
KMVY 152253Z AUTO 01014G21KT 4SM HZ OVC009 A3047 RMK AO2 CIG 008V013 SLPNO $
KMVY 152205Z AUTO 36014G23KT 9SM OVC009 A3047 RMK AO2 CIG 008V013 $
KMVY 152153Z 01014G23KT 7SM OVC010 M01/M02 A3047 RMK AO2 PK WND 01027/2123 CIG 008V013 SLPNO T10111022 $
KMVY 152115Z 01014G25KT 10SM OVC010 M01/M02 A3048 RMK AO2 T10111022 $
KMVY 152053Z 02013KT 9SM OVC009 M01/M02 A3049 RMK AO2 SLPNO 60000 T10111022 56006 $
KMVY 152035Z 01016G20KT 4SM BR BKN007 OVC011 M01/M02 A3049 RMK AO2 T10111022 $
KMVY 152027Z 36012G19KT 2 1/2SM BR BKN008 OVC013 M01/M02 A3049 RMK AO2 T10111022 $
KMVY 152020Z 36013G21KT 1 3/4SM BR BKN008 OVC013 M01/M02 A3049 RMK AO2 T10111022 $
KMVY 152013Z 01015G21KT 1 1/2SM BR SCT008 BKN014 OVC020 M01/M02 A3049 RMK AO2 T10111022 $
KMVY 152006Z 01013G22KT 1 1/4SM R24/6000VP6000FT BR BKN009 OVC018 M01/M02 A3050 RMK AO2 T10111022 $
KMVY 151959Z 01016G22KT 1 3/4SM BR SCT010 OVC018 A3050 RMK AO2 $
KMVY 151953Z 01016G25KT 2 1/2SM BR BKN010 OVC018 M01/M02 A3050 RMK AO2 SNE1858 SLPNO P0000 T10111022 $
KMVY 151910Z 01017G25KT 6SM BR BKN010 OVC025 M01/M02 A3048 RMK AO2 SNE1858 CIG 007V012 P0000 T10111022 $
KMVY 151853Z 01015G21KT 9SM -SN OVC007 A3047 RMK AO2 CIG 007V012 SLPNO P0000 $
KMVY 151753Z 02017G27KT 9SM -SN OVC008 A3050 RMK AO2 PK WND 36027/1749 SLPNO P0000 60000 58039 $
KMVY 151705Z 01015G24KT 8SM -SN OVC009 A3054 RMK AO2 CIG 008V013 P0000 $
KMVY 151653Z 02015G23KT 3SM -SN BR OVC010 M01/M02 A3055 RMK AO2 UPB26E30SNB42 CIG 008V012 SLPNO P0000 T10111022 $
KMVY 151607Z 02016G24KT 10SM BKN013 OVC022 A3058 RMK AO2 $
KMVY 151553Z 01014G22KT 10SM BKN015 OVC023 M01/M03 A3059 RMK AO2 SLPNO T10111028 $
KMVY 151526Z 02012G21KT 10SM BKN026 OVC033 M01/M03 A3060 RMK AO2 T10111028 $
KMVY 151453Z 02013G21KT 10SM OVC033 M02/M05 A3062 RMK AO2 SLPNO T10221050 58003 $
KMVY 151422Z 01017G22KT 10SM SCT024 OVC032 M02/M05 A3063 RMK AO2 T10221050 $
KMVY 151353Z 02014KT 10SM OVC025 A3064 RMK AO2 SLPNO $
KMVY 151253Z 02013G19KT 10SM OVC026 M02/M06 A3064 RMK AO2 SLPNO T10221061 $
KMVY 151153Z 03016G24KT 10SM OVC026 M02/M06 A3063 RMK AO2 SLPNO T10221061 53001 $